Burden, Kansas
Current Conditions -  °F | °C
As of 8:54 AM on Thursday 30 Oct 2014 (Local Time) from KWLD Reporting Station
Clear Clear  
Wind Chill: 51°   Ceiling: Unl
Heat Index: 51°   Visibility: 10mi
Dew Point: 40°   Wind: 12mph
Humidity: 66%   Direction: 250°WSW
Pressure: 30.1"   Gusts: NA
Location:  37.31°N, 96.75°W
Report Text: KWLD 301354Z AUTO 25010KT 10SM CLR 11/04 A3010 RMK AO2 SLP194 T01060044
Loading
Personal Weather Stations






























Interactive Weather Map
Tropical Storm Tracking
New forecast layout! Learn more

10-Day Weather Forecast

Advertisements
Track Severe Weather on mobile